sensor_id;sensor_type;location;lat;lon;timestamp;P1;durP1;ratioP1;P2;durP2;ratioP2
32866;SDS011;19220;55.816;37.808;2023-03-23T00:00:53;4.80;;;2.22;;
32866;SDS011;19220;55.816;37.808;2023-03-23T00:03:19;4.07;;;2.17;;
32866;SDS011;19220;55.816;37.808;2023-03-23T00:05:46;2.08;;;1.88;;
32866;SDS011;19220;55.816;37.808;2023-03-23T00:08:21;2.50;;;2.30;;
32866;SDS011;19220;55.816;37.808;2023-03-23T00:10:50;3.05;;;2.20;;
32866;SDS011;19220;55.816;37.808;2023-03-23T00:13:25;3.45;;;2.20;;
32866;SDS011;19220;55.816;37.808;2023-03-23T00:15:50;3.10;;;2.20;;
32866;SDS011;19220;55.816;37.808;2023-03-23T00:18:19;3.30;;;2.40;;
32866;SDS011;19220;55.816;37.808;2023-03-23T00:20:51;5.20;;;2.00;;
32866;SDS011;19220;55.816;37.808;2023-03-23T00:23:17;3.25;;;2.28;;
32866;SDS011;19220;55.816;37.808;2023-03-23T00:25:46;4.00;;;2.33;;
32866;SDS011;19220;55.816;37.808;2023-03-23T00:28:13;4.30;;;2.05;;
32866;SDS011;19220;55.816;37.808;2023-03-23T00:30:39;2.33;;;2.08;;
32866;SDS011;19220;55.816;37.808;2023-03-23T00:33:07;3.58;;;1.92;;
32866;SDS011;19220;55.816;37.808;2023-03-23T00:35:33;2.17;;;1.92;;
32866;SDS011;19220;55.816;37.808;2023-03-23T00:38:00;2.90;;;1.80;;
32866;SDS011;19220;55.816;37.808;2023-03-23T00:40:25;2.45;;;2.00;;
32866;SDS011;19220;55.816;37.808;2023-03-23T00:42:52;3.25;;;2.13;;
32866;SDS011;19220;55.816;37.808;2023-03-23T00:45:17;4.72;;;2.22;;
32866;SDS011;19220;55.816;37.808;2023-03-23T00:47:43;2.45;;;2.10;;
32866;SDS011;19220;55.816;37.808;2023-03-23T00:50:12;2.40;;;2.10;;
32866;SDS011;19220;55.816;37.808;2023-03-23T00:52:39;3.22;;;2.00;;
32866;SDS011;19220;55.816;37.808;2023-03-23T00:55:05;2.45;;;2.08;;
32866;SDS011;19220;55.816;37.808;2023-03-23T00:57:31;3.78;;;1.98;;
32866;SDS011;19220;55.816;37.808;2023-03-23T00:59:56;2.22;;;2.03;;
32866;SDS011;19220;55.816;37.808;2023-03-23T01:02:22;3.13;;;2.20;;
32866;SDS011;19220;55.816;37.808;2023-03-23T01:04:50;1.88;;;1.67;;
32866;SDS011;19220;55.816;37.808;2023-03-23T01:07:20;3.30;;;2.05;;
32866;SDS011;19220;55.816;37.808;2023-03-23T01:09:46;2.95;;;1.90;;
32866;SDS011;19220;55.816;37.808;2023-03-23T01:12:13;2.30;;;2.10;;
32866;SDS011;19220;55.816;37.808;2023-03-23T01:14:40;4.55;;;2.20;;
32866;SDS011;19220;55.816;37.808;2023-03-23T01:17:06;2.20;;;1.98;;
32866;SDS011;19220;55.816;37.808;2023-03-23T01:19:33;3.38;;;1.92;;
32866;SDS011;19220;55.816;37.808;2023-03-23T01:22:00;3.70;;;1.90;;
32866;SDS011;19220;55.816;37.808;2023-03-23T01:24:25;2.50;;;2.13;;
32866;SDS011;19220;55.816;37.808;2023-03-23T01:26:51;3.53;;;2.30;;
32866;SDS011;19220;55.816;37.808;2023-03-23T01:29:16;1.90;;;1.80;;
32866;SDS011;19220;55.816;37.808;2023-03-23T01:31:42;2.20;;;2.00;;
32866;SDS011;19220;55.816;37.808;2023-03-23T01:34:08;3.08;;;2.10;;
32866;SDS011;19220;55.816;37.808;2023-03-23T01:36:36;2.15;;;1.98;;
32866;SDS011;19220;55.816;37.808;2023-03-23T01:39:04;2.22;;;2.03;;
32866;SDS011;19220;55.816;37.808;2023-03-23T01:41:31;1.98;;;1.77;;
32866;SDS011;19220;55.816;37.808;2023-03-23T01:46:28;3.00;;;2.35;;
32866;SDS011;19220;55.816;37.808;2023-03-23T01:48:55;2.60;;;2.10;;
32866;SDS011;19220;55.816;37.808;2023-03-23T01:51:23;3.38;;;2.17;;
32866;SDS011;19220;55.816;37.808;2023-03-23T01:53:53;2.15;;;1.90;;
32866;SDS011;19220;55.816;37.808;2023-03-23T01:56:20;2.67;;;1.95;;
32866;SDS011;19220;55.816;37.808;2023-03-23T01:58:50;2.83;;;2.20;;
32866;SDS011;19220;55.816;37.808;2023-03-23T02:01:16;4.35;;;2.33;;
32866;SDS011;19220;55.816;37.808;2023-03-23T02:03:44;2.15;;;2.00;;
32866;SDS011;19220;55.816;37.808;2023-03-23T02:06:12;2.33;;;2.10;;
32866;SDS011;19220;55.816;37.808;2023-03-23T02:08:54;2.42;;;2.13;;
32866;SDS011;19220;55.816;37.808;2023-03-23T02:11:21;2.30;;;2.10;;
32866;SDS011;19220;55.816;37.808;2023-03-23T02:13:51;4.30;;;2.30;;
32866;SDS011;19220;55.816;37.808;2023-03-23T02:16:20;2.75;;;2.30;;
32866;SDS011;19220;55.816;37.808;2023-03-23T02:19:14;4.63;;;2.10;;
32866;SDS011;19220;55.816;37.808;2023-03-23T02:31:42;3.58;;;2.53;;
32866;SDS011;19220;55.816;37.808;2023-03-23T02:36:44;2.55;;;2.35;;
32866;SDS011;19220;55.816;37.808;2023-03-23T02:39:13;6.13;;;2.92;;
32866;SDS011;19220;55.816;37.808;2023-03-23T02:41:40;5.63;;;2.53;;
32866;SDS011;19220;55.816;37.808;2023-03-23T02:44:07;2.90;;;2.60;;
32866;SDS011;19220;55.816;37.808;2023-03-23T02:46:35;5.28;;;2.78;;
32866;SDS011;19220;55.816;37.808;2023-03-23T02:49:01;3.65;;;2.70;;
32866;SDS011;19220;55.816;37.808;2023-03-23T02:51:28;3.50;;;2.65;;
32866;SDS011;19220;55.816;37.808;2023-03-23T02:53:54;3.33;;;2.92;;
32866;SDS011;19220;55.816;37.808;2023-03-23T02:56:23;3.58;;;2.60;;
32866;SDS011;19220;55.816;37.808;2023-03-23T02:58:50;3.03;;;2.53;;
32866;SDS011;19220;55.816;37.808;2023-03-23T03:01:45;4.68;;;2.70;;
32866;SDS011;19220;55.816;37.808;2023-03-23T03:04:06;4.03;;;2.97;;
32866;SDS011;19220;55.816;37.808;2023-03-23T03:06:36;4.38;;;2.67;;
32866;SDS011;19220;55.816;37.808;2023-03-23T03:11:51;3.50;;;2.92;;
32866;SDS011;19220;55.816;37.808;2023-03-23T03:14:23;3.55;;;2.80;;
32866;SDS011;19220;55.816;37.808;2023-03-23T03:19:27;4.90;;;2.90;;
32866;SDS011;19220;55.816;37.808;2023-03-23T03:21:55;3.65;;;2.70;;
32866;SDS011;19220;55.816;37.808;2023-03-23T03:24:30;3.33;;;2.80;;
32866;SDS011;19220;55.816;37.808;2023-03-23T03:26:56;3.40;;;2.97;;
32866;SDS011;19220;55.816;37.808;2023-03-23T03:29:32;6.95;;;2.90;;
32866;SDS011;19220;55.816;37.808;2023-03-23T03:31:59;3.80;;;2.65;;
32866;SDS011;19220;55.816;37.808;2023-03-23T03:34:27;5.82;;;2.97;;
32866;SDS011;19220;55.816;37.808;2023-03-23T03:36:54;3.55;;;3.00;;
32866;SDS011;19220;55.816;37.808;2023-03-23T03:39:21;3.05;;;2.75;;
32866;SDS011;19220;55.816;37.808;2023-03-23T03:41:47;3.13;;;2.70;;
32866;SDS011;19220;55.816;37.808;2023-03-23T03:44:12;5.38;;;2.85;;
32866;SDS011;19220;55.816;37.808;2023-03-23T03:46:39;3.72;;;3.00;;
32866;SDS011;19220;55.816;37.808;2023-03-23T03:49:06;3.08;;;2.72;;
32866;SDS011;19220;55.816;37.808;2023-03-23T03:51:34;3.95;;;2.83;;
32866;SDS011;19220;55.816;37.808;2023-03-23T03:54:01;3.15;;;2.85;;
32866;SDS011;19220;55.816;37.808;2023-03-23T03:56:26;4.55;;;3.25;;
32866;SDS011;19220;55.816;37.808;2023-03-23T03:59:12;4.15;;;2.67;;
32866;SDS011;19220;55.816;37.808;2023-03-23T04:01:53;3.53;;;2.95;;
32866;SDS011;19220;55.816;37.808;2023-03-23T04:04:20;4.68;;;3.28;;
32866;SDS011;19220;55.816;37.808;2023-03-23T04:06:48;3.17;;;2.78;;
32866;SDS011;19220;55.816;37.808;2023-03-23T04:09:14;3.42;;;2.90;;
32866;SDS011;19220;55.816;37.808;2023-03-23T04:11:40;6.20;;;3.10;;
32866;SDS011;19220;55.816;37.808;2023-03-23T04:14:29;3.50;;;2.85;;
32866;SDS011;19220;55.816;37.808;2023-03-23T04:16:54;6.97;;;3.40;;
32866;SDS011;19220;55.816;37.808;2023-03-23T04:19:23;3.55;;;3.20;;
32866;SDS011;19220;55.816;37.808;2023-03-23T04:21:48;3.47;;;2.88;;
32866;SDS011;19220;55.816;37.808;2023-03-23T04:24:15;3.90;;;3.25;;
32866;SDS011;19220;55.816;37.808;2023-03-23T04:26:41;4.63;;;2.78;;
32866;SDS011;19220;55.816;37.808;2023-03-23T04:29:16;3.40;;;3.03;;
32866;SDS011;19220;55.816;37.808;2023-03-23T04:32:04;3.63;;;3.00;;
32866;SDS011;19220;55.816;37.808;2023-03-23T04:34:36;4.25;;;3.05;;
32866;SDS011;19220;55.816;37.808;2023-03-23T04:37:02;3.72;;;3.10;;
32866;SDS011;19220;55.816;37.808;2023-03-23T04:39:29;4.45;;;3.30;;
32866;SDS011;19220;55.816;37.808;2023-03-23T04:41:59;7.25;;;3.70;;
32866;SDS011;19220;55.816;37.808;2023-03-23T04:44:44;7.65;;;3.83;;
32866;SDS011;19220;55.816;37.808;2023-03-23T04:47:20;7.43;;;3.47;;
32866;SDS011;19220;55.816;37.808;2023-03-23T04:49:52;5.50;;;3.67;;
32866;SDS011;19220;55.816;37.808;2023-03-23T04:52:25;6.00;;;3.65;;
32866;SDS011;19220;55.816;37.808;2023-03-23T04:54:54;4.50;;;3.80;;
32866;SDS011;19220;55.816;37.808;2023-03-23T04:57:24;5.18;;;3.85;;
32866;SDS011;19220;55.816;37.808;2023-03-23T05:00:16;5.38;;;4.07;;
32866;SDS011;19220;55.816;37.808;2023-03-23T05:02:48;6.70;;;3.88;;
32866;SDS011;19220;55.816;37.808;2023-03-23T05:05:19;7.00;;;4.65;;
32866;SDS011;19220;55.816;37.808;2023-03-23T05:07:46;5.70;;;3.92;;
32866;SDS011;19220;55.816;37.808;2023-03-23T05:10:14;8.30;;;4.60;;
32866;SDS011;19220;55.816;37.808;2023-03-23T05:12:41;6.60;;;4.30;;
32866;SDS011;19220;55.816;37.808;2023-03-23T05:15:10;6.07;;;4.65;;
32866;SDS011;19220;55.816;37.808;2023-03-23T05:17:36;5.82;;;4.13;;
32866;SDS011;19220;55.816;37.808;2023-03-23T05:20:09;8.57;;;4.70;;
32866;SDS011;19220;55.816;37.808;2023-03-23T05:22:43;9.50;;;4.50;;
32866;SDS011;19220;55.816;37.808;2023-03-23T05:25:16;5.07;;;4.30;;
32866;SDS011;19220;55.816;37.808;2023-03-23T05:27:50;7.00;;;4.75;;
32866;SDS011;19220;55.816;37.808;2023-03-23T05:30:36;5.65;;;4.45;;
32866;SDS011;19220;55.816;37.808;2023-03-23T05:33:04;6.68;;;4.63;;
32866;SDS011;19220;55.816;37.808;2023-03-23T05:38:29;13.55;;;4.72;;
32866;SDS011;19220;55.816;37.808;2023-03-23T05:40:59;6.57;;;4.90;;
32866;SDS011;19220;55.816;37.808;2023-03-23T05:43:30;6.30;;;5.05;;
32866;SDS011;19220;55.816;37.808;2023-03-23T05:46:22;9.85;;;4.72;;
32866;SDS011;19220;55.816;37.808;2023-03-23T05:48:48;6.93;;;4.90;;
32866;SDS011;19220;55.816;37.808;2023-03-23T05:51:17;7.72;;;4.28;;
32866;SDS011;19220;55.816;37.808;2023-03-23T05:53:44;5.18;;;4.15;;
32866;SDS011;19220;55.816;37.808;2023-03-23T05:56:12;5.28;;;4.28;;
32866;SDS011;19220;55.816;37.808;2023-03-23T05:58:56;6.73;;;5.00;;
32866;SDS011;19220;55.816;37.808;2023-03-23T06:01:22;5.90;;;4.50;;
32866;SDS011;19220;55.816;37.808;2023-03-23T06:03:48;6.13;;;4.53;;
32866;SDS011;19220;55.816;37.808;2023-03-23T06:06:20;4.88;;;4.15;;
32866;SDS011;19220;55.816;37.808;2023-03-23T06:08:58;5.07;;;4.53;;
32866;SDS011;19220;55.816;37.808;2023-03-23T06:11:37;6.65;;;4.65;;
32866;SDS011;19220;55.816;37.808;2023-03-23T06:14:25;5.97;;;4.60;;
32866;SDS011;19220;55.816;37.808;2023-03-23T06:16:51;9.57;;;4.82;;
32866;SDS011;19220;55.816;37.808;2023-03-23T06:19:17;6.32;;;4.50;;
32866;SDS011;19220;55.816;37.808;2023-03-23T06:21:53;7.43;;;4.55;;
32866;SDS011;19220;55.816;37.808;2023-03-23T06:24:25;5.95;;;4.10;;
32866;SDS011;19220;55.816;37.808;2023-03-23T06:26:51;6.30;;;4.75;;
32866;SDS011;19220;55.816;37.808;2023-03-23T06:29:20;5.93;;;4.28;;
32866;SDS011;19220;55.816;37.808;2023-03-23T06:31:52;7.43;;;5.10;;
32866;SDS011;19220;55.816;37.808;2023-03-23T06:34:20;5.88;;;4.95;;
32866;SDS011;19220;55.816;37.808;2023-03-23T06:37:06;8.45;;;5.10;;
32866;SDS011;19220;55.816;37.808;2023-03-23T06:39:40;12.02;;;5.25;;
32866;SDS011;19220;55.816;37.808;2023-03-23T06:42:19;10.23;;;5.40;;
32866;SDS011;19220;55.816;37.808;2023-03-23T06:44:52;8.60;;;5.03;;
32866;SDS011;19220;55.816;37.808;2023-03-23T06:47:18;6.75;;;5.20;;
32866;SDS011;19220;55.816;37.808;2023-03-23T06:49:46;9.48;;;5.30;;
32866;SDS011;19220;55.816;37.808;2023-03-23T06:52:20;7.40;;;5.05;;
32866;SDS011;19220;55.816;37.808;2023-03-23T06:54:48;6.82;;;5.45;;
32866;SDS011;19220;55.816;37.808;2023-03-23T06:57:14;7.22;;;5.43;;
32866;SDS011;19220;55.816;37.808;2023-03-23T06:59:43;8.13;;;5.82;;
32866;SDS011;19220;55.816;37.808;2023-03-23T07:02:10;5.70;;;5.00;;
32866;SDS011;19220;55.816;37.808;2023-03-23T07:04:37;8.02;;;5.60;;
32866;SDS011;19220;55.816;37.808;2023-03-23T07:07:10;9.27;;;5.15;;
32866;SDS011;19220;55.816;37.808;2023-03-23T07:09:46;13.23;;;5.45;;
32866;SDS011;19220;55.816;37.808;2023-03-23T07:12:13;10.50;;;5.60;;
32866;SDS011;19220;55.816;37.808;2023-03-23T07:14:44;8.55;;;4.97;;
32866;SDS011;19220;55.816;37.808;2023-03-23T07:17:11;9.07;;;5.47;;
32866;SDS011;19220;55.816;37.808;2023-03-23T07:19:42;8.15;;;5.40;;
32866;SDS011;19220;55.816;37.808;2023-03-23T07:22:11;17.85;;;6.45;;
32866;SDS011;19220;55.816;37.808;2023-03-23T07:24:38;6.57;;;5.20;;
32866;SDS011;19220;55.816;37.808;2023-03-23T07:27:21;10.02;;;5.25;;
32866;SDS011;19220;55.816;37.808;2023-03-23T07:29:48;7.53;;;4.82;;
32866;SDS011;19220;55.816;37.808;2023-03-23T07:32:20;9.85;;;5.45;;
32866;SDS011;19220;55.816;37.808;2023-03-23T07:34:46;7.82;;;5.43;;
32866;SDS011;19220;55.816;37.808;2023-03-23T07:37:35;8.50;;;4.90;;
32866;SDS011;19220;55.816;37.808;2023-03-23T07:40:02;6.43;;;4.72;;
32866;SDS011;19220;55.816;37.808;2023-03-23T07:42:33;10.85;;;5.30;;
32866;SDS011;19220;55.816;37.808;2023-03-23T07:44:59;8.90;;;4.95;;
32866;SDS011;19220;55.816;37.808;2023-03-23T07:47:25;7.65;;;4.60;;
32866;SDS011;19220;55.816;37.808;2023-03-23T07:49:51;7.15;;;4.57;;
32866;SDS011;19220;55.816;37.808;2023-03-23T07:52:28;7.70;;;4.85;;
32866;SDS011;19220;55.816;37.808;2023-03-23T07:54:53;6.30;;;4.75;;
32866;SDS011;19220;55.816;37.808;2023-03-23T08:00:04;8.48;;;4.93;;
32866;SDS011;19220;55.816;37.808;2023-03-23T08:02:41;5.00;;;4.50;;
32866;SDS011;19220;55.816;37.808;2023-03-23T08:05:30;12.38;;;4.78;;
32866;SDS011;19220;55.816;37.808;2023-03-23T08:08:29;11.77;;;4.93;;
32866;SDS011;19220;55.816;37.808;2023-03-23T08:11:21;8.13;;;4.65;;
32866;SDS011;19220;55.816;37.808;2023-03-23T08:14:07;11.55;;;4.80;;
32866;SDS011;19220;55.816;37.808;2023-03-23T08:16:56;7.93;;;4.75;;
32866;SDS011;19220;55.816;37.808;2023-03-23T08:19:37;7.43;;;5.10;;
32866;SDS011;19220;55.816;37.808;2023-03-23T08:22:21;10.63;;;4.65;;
32866;SDS011;19220;55.816;37.808;2023-03-23T08:25:06;7.57;;;4.30;;
32866;SDS011;19220;55.816;37.808;2023-03-23T08:28:00;6.75;;;4.35;;
32866;SDS011;19220;55.816;37.808;2023-03-23T08:30:50;10.98;;;4.40;;
32866;SDS011;19220;55.816;37.808;2023-03-23T08:33:36;16.48;;;4.90;;
32866;SDS011;19220;55.816;37.808;2023-03-23T08:36:34;6.72;;;4.15;;
32866;SDS011;19220;55.816;37.808;2023-03-23T08:42:01;8.07;;;4.38;;
32866;SDS011;19220;55.816;37.808;2023-03-23T08:44:56;5.72;;;4.40;;
32866;SDS011;19220;55.816;37.808;2023-03-23T08:47:40;4.22;;;3.83;;
32866;SDS011;19220;55.816;37.808;2023-03-23T08:50:35;5.80;;;4.80;;
32866;SDS011;19220;55.816;37.808;2023-03-23T08:53:19;4.97;;;4.13;;
32866;SDS011;19220;55.816;37.808;2023-03-23T08:55:46;5.30;;;4.30;;
32866;SDS011;19220;55.816;37.808;2023-03-23T08:58:30;7.45;;;4.10;;
32866;SDS011;19220;55.816;37.808;2023-03-23T09:01:22;12.68;;;4.38;;
32866;SDS011;19220;55.816;37.808;2023-03-23T09:04:20;5.43;;;3.75;;
32866;SDS011;19220;55.816;37.808;2023-03-23T09:06:55;6.15;;;3.97;;
32866;SDS011;19220;55.816;37.808;2023-03-23T09:09:21;10.52;;;4.57;;
32866;SDS011;19220;55.816;37.808;2023-03-23T09:11:46;6.43;;;4.28;;
32866;SDS011;19220;55.816;37.808;2023-03-23T09:14:12;10.73;;;4.55;;
32866;SDS011;19220;55.816;37.808;2023-03-23T09:16:37;8.25;;;4.20;;
32866;SDS011;19220;55.816;37.808;2023-03-23T09:19:03;6.25;;;3.83;;
32866;SDS011;19220;55.816;37.808;2023-03-23T09:21:29;8.90;;;4.20;;
32866;SDS011;19220;55.816;37.808;2023-03-23T09:23:55;5.90;;;4.10;;
32866;SDS011;19220;55.816;37.808;2023-03-23T09:26:24;5.20;;;3.67;;
32866;SDS011;19220;55.816;37.808;2023-03-23T09:28:50;5.20;;;3.67;;
32866;SDS011;19220;55.816;37.808;2023-03-23T09:31:17;5.60;;;3.83;;
32866;SDS011;19220;55.816;37.808;2023-03-23T09:33:45;7.75;;;4.13;;
32866;SDS011;19220;55.816;37.808;2023-03-23T09:36:11;7.38;;;4.20;;
32866;SDS011;19220;55.816;37.808;2023-03-23T09:38:39;6.85;;;3.97;;
32866;SDS011;19220;55.816;37.808;2023-03-23T09:46:41;5.40;;;3.55;;
32866;SDS011;19220;55.816;37.808;2023-03-23T09:49:23;8.75;;;4.40;;
32866;SDS011;19220;55.816;37.808;2023-03-23T09:51:51;6.05;;;3.50;;
32866;SDS011;19220;55.816;37.808;2023-03-23T09:56:50;5.35;;;4.03;;
32866;SDS011;19220;55.816;37.808;2023-03-23T09:59:22;4.18;;;3.35;;
32866;SDS011;19220;55.816;37.808;2023-03-23T10:01:50;10.52;;;4.88;;
32866;SDS011;19220;55.816;37.808;2023-03-23T10:04:38;5.93;;;3.95;;
32866;SDS011;19220;55.816;37.808;2023-03-23T10:07:15;7.40;;;4.28;;
32866;SDS011;19220;55.816;37.808;2023-03-23T10:09:43;4.38;;;3.28;;
32866;SDS011;19220;55.816;37.808;2023-03-23T10:12:14;7.10;;;3.58;;
32866;SDS011;19220;55.816;37.808;2023-03-23T10:19:47;4.20;;;3.80;;
32866;SDS011;19220;55.816;37.808;2023-03-23T10:22:15;6.95;;;3.88;;
32866;SDS011;19220;55.816;37.808;2023-03-23T10:25:03;6.68;;;3.50;;
32866;SDS011;19220;55.816;37.808;2023-03-23T10:32:54;5.43;;;3.80;;
32866;SDS011;19220;55.816;37.808;2023-03-23T10:35:25;4.15;;;3.67;;
32866;SDS011;19220;55.816;37.808;2023-03-23T10:38:01;5.45;;;3.67;;
32866;SDS011;19220;55.816;37.808;2023-03-23T10:40:28;4.30;;;3.70;;
32866;SDS011;19220;55.816;37.808;2023-03-23T10:42:54;5.25;;;3.65;;
32866;SDS011;19220;55.816;37.808;2023-03-23T10:45:22;3.67;;;3.30;;
32866;SDS011;19220;55.816;37.808;2023-03-23T10:50:32;3.55;;;3.22;;
32866;SDS011;19220;55.816;37.808;2023-03-23T10:52:59;4.40;;;3.67;;
32866;SDS011;19220;55.816;37.808;2023-03-23T10:55:35;6.47;;;3.40;;
32866;SDS011;19220;55.816;37.808;2023-03-23T10:58:09;6.15;;;3.55;;
32866;SDS011;19220;55.816;37.808;2023-03-23T11:05:37;8.70;;;3.85;;
32866;SDS011;19220;55.816;37.808;2023-03-23T11:08:10;7.25;;;3.20;;
32866;SDS011;19220;55.816;37.808;2023-03-23T11:10:38;4.00;;;3.60;;
32866;SDS011;19220;55.816;37.808;2023-03-23T11:13:04;4.28;;;3.35;;
32866;SDS011;19220;55.816;37.808;2023-03-23T11:15:37;6.53;;;3.38;;
32866;SDS011;19220;55.816;37.808;2023-03-23T11:18:03;10.20;;;3.50;;
32866;SDS011;19220;55.816;37.808;2023-03-23T11:20:32;4.28;;;3.20;;
32866;SDS011;19220;55.816;37.808;2023-03-23T11:23:01;3.47;;;3.13;;
32866;SDS011;19220;55.816;37.808;2023-03-23T11:25:27;3.72;;;3.20;;
32866;SDS011;19220;55.816;37.808;2023-03-23T11:27:52;3.38;;;3.08;;
32866;SDS011;19220;55.816;37.808;2023-03-23T11:32:44;5.47;;;3.25;;
32866;SDS011;19220;55.816;37.808;2023-03-23T11:35:20;7.60;;;3.10;;
32866;SDS011;19220;55.816;37.808;2023-03-23T11:37:56;4.13;;;3.20;;
32866;SDS011;19220;55.816;37.808;2023-03-23T11:40:23;8.50;;;2.95;;
32866;SDS011;19220;55.816;37.808;2023-03-23T11:42:56;4.78;;;2.78;;
32866;SDS011;19220;55.816;37.808;2023-03-23T11:48:00;9.25;;;2.40;;
32866;SDS011;19220;55.816;37.808;2023-03-23T11:50:34;3.85;;;2.70;;
32866;SDS011;19220;55.816;37.808;2023-03-23T11:58:11;3.17;;;2.50;;
32866;SDS011;19220;55.816;37.808;2023-03-23T12:00:49;6.75;;;2.47;;
32866;SDS011;19220;55.816;37.808;2023-03-23T12:03:16;3.65;;;2.88;;
32866;SDS011;19220;55.816;37.808;2023-03-23T12:08:18;4.57;;;2.50;;
32866;SDS011;19220;55.816;37.808;2023-03-23T12:10:54;5.63;;;2.75;;
32866;SDS011;19220;55.816;37.808;2023-03-23T12:24:18;4.70;;;2.60;;
32866;SDS011;19220;55.816;37.808;2023-03-23T12:34:30;4.93;;;2.63;;
32866;SDS011;19220;55.816;37.808;2023-03-23T12:42:11;6.45;;;3.03;;
32866;SDS011;19220;55.816;37.808;2023-03-23T12:44:49;2.88;;;2.58;;
32866;SDS011;19220;55.816;37.808;2023-03-23T12:47:30;2.40;;;2.20;;
32866;SDS011;19220;55.816;37.808;2023-03-23T12:50:01;3.33;;;2.50;;
32866;SDS011;19220;55.816;37.808;2023-03-23T12:52:30;5.18;;;2.72;;
32866;SDS011;19220;55.816;37.808;2023-03-23T12:57:29;3.20;;;2.78;;
32866;SDS011;19220;55.816;37.808;2023-03-23T13:00:02;3.87;;;2.57;;
32866;SDS011;19220;55.816;37.808;2023-03-23T13:07:55;3.63;;;2.47;;
32866;SDS011;19220;55.816;37.808;2023-03-23T13:10:22;4.45;;;2.72;;
32866;SDS011;19220;55.816;37.808;2023-03-23T13:12:49;4.30;;;2.92;;
32866;SDS011;19220;55.816;37.808;2023-03-23T13:18:03;3.10;;;2.83;;
32866;SDS011;19220;55.816;37.808;2023-03-23T13:20:36;5.10;;;2.60;;
32866;SDS011;19220;55.816;37.808;2023-03-23T13:25:50;7.88;;;2.53;;
32866;SDS011;19220;55.816;37.808;2023-03-23T13:28:21;3.63;;;2.85;;
32866;SDS011;19220;55.816;37.808;2023-03-23T13:30:54;3.85;;;2.50;;
32866;SDS011;19220;55.816;37.808;2023-03-23T13:33:20;42.42;;;5.55;;
32866;SDS011;19220;55.816;37.808;2023-03-23T13:35:46;5.70;;;2.95;;
32866;SDS011;19220;55.816;37.808;2023-03-23T13:38:18;9.25;;;2.92;;
32866;SDS011;19220;55.816;37.808;2023-03-23T13:40:44;4.03;;;3.17;;
32866;SDS011;19220;55.816;37.808;2023-03-23T13:43:10;4.07;;;2.55;;
32866;SDS011;19220;55.816;37.808;2023-03-23T13:50:29;5.35;;;2.63;;
32866;SDS011;19220;55.816;37.808;2023-03-23T13:52:59;3.00;;;2.70;;
32866;SDS011;19220;55.816;37.808;2023-03-23T19:45:54;5.43;;;3.95;;
32866;SDS011;19220;55.816;37.808;2023-03-23T19:48:20;6.22;;;4.10;;
32866;SDS011;19220;55.816;37.808;2023-03-23T19:50:45;5.30;;;4.18;;
32866;SDS011;19220;55.816;37.808;2023-03-23T19:53:15;5.68;;;4.18;;
32866;SDS011;19220;55.816;37.808;2023-03-23T19:55:41;5.93;;;4.10;;
32866;SDS011;19220;55.816;37.808;2023-03-23T19:58:06;6.03;;;4.00;;
32866;SDS011;19220;55.816;37.808;2023-03-23T20:00:32;9.40;;;3.72;;
32866;SDS011;19220;55.816;37.808;2023-03-23T20:02:57;4.72;;;3.88;;
32866;SDS011;19220;55.816;37.808;2023-03-23T20:05:23;6.75;;;4.65;;
32866;SDS011;19220;55.816;37.808;2023-03-23T20:07:49;6.32;;;4.05;;
32866;SDS011;19220;55.816;37.808;2023-03-23T20:10:14;6.43;;;4.30;;
32866;SDS011;19220;55.816;37.808;2023-03-23T20:12:40;4.25;;;3.65;;
32866;SDS011;19220;55.816;37.808;2023-03-23T20:15:05;5.32;;;3.97;;
32866;SDS011;19220;55.816;37.808;2023-03-23T20:17:31;5.78;;;3.63;;
32866;SDS011;19220;55.816;37.808;2023-03-23T20:19:57;6.15;;;3.90;;
32866;SDS011;19220;55.816;37.808;2023-03-23T20:22:22;7.30;;;3.70;;
32866;SDS011;19220;55.816;37.808;2023-03-23T20:24:48;7.00;;;3.70;;
32866;SDS011;19220;55.816;37.808;2023-03-23T20:27:14;5.40;;;3.97;;
32866;SDS011;19220;55.816;37.808;2023-03-23T20:29:40;5.15;;;3.58;;
32866;SDS011;19220;55.816;37.808;2023-03-23T20:32:06;7.93;;;3.72;;
32866;SDS011;19220;55.816;37.808;2023-03-23T20:34:31;5.50;;;3.85;;
32866;SDS011;19220;55.816;37.808;2023-03-23T20:36:58;5.78;;;3.63;;
32866;SDS011;19220;55.816;37.808;2023-03-23T20:39:24;4.32;;;3.70;;
32866;SDS011;19220;55.816;37.808;2023-03-23T20:41:50;5.70;;;3.95;;
32866;SDS011;19220;55.816;37.808;2023-03-23T20:44:17;6.18;;;5.57;;
32866;SDS011;19220;55.816;37.808;2023-03-23T20:46:43;5.68;;;3.80;;
32866;SDS011;19220;55.816;37.808;2023-03-23T20:49:09;5.50;;;3.70;;
32866;SDS011;19220;55.816;37.808;2023-03-23T20:51:35;5.78;;;3.80;;
32866;SDS011;19220;55.816;37.808;2023-03-23T20:54:01;7.40;;;3.97;;
32866;SDS011;19220;55.816;37.808;2023-03-23T20:56:28;5.43;;;4.20;;
32866;SDS011;19220;55.816;37.808;2023-03-23T20:58:53;4.68;;;3.88;;
32866;SDS011;19220;55.816;37.808;2023-03-23T21:01:19;4.85;;;4.10;;
32866;SDS011;19220;55.816;37.808;2023-03-23T21:03:45;5.85;;;4.25;;
32866;SDS011;19220;55.816;37.808;2023-03-23T21:06:11;4.18;;;3.38;;
32866;SDS011;19220;55.816;37.808;2023-03-23T21:08:38;7.15;;;4.53;;
32866;SDS011;19220;55.816;37.808;2023-03-23T21:11:04;4.95;;;4.00;;
32866;SDS011;19220;55.816;37.808;2023-03-23T21:13:31;4.72;;;4.22;;
32866;SDS011;19220;55.816;37.808;2023-03-23T21:15:57;6.35;;;4.35;;
32866;SDS011;19220;55.816;37.808;2023-03-23T21:18:24;5.20;;;4.20;;
32866;SDS011;19220;55.816;37.808;2023-03-23T21:20:49;5.00;;;4.30;;
32866;SDS011;19220;55.816;37.808;2023-03-23T21:23:15;4.82;;;4.10;;
32866;SDS011;19220;55.816;37.808;2023-03-23T21:25:42;9.20;;;4.28;;
32866;SDS011;19220;55.816;37.808;2023-03-23T21:28:09;6.03;;;4.25;;
32866;SDS011;19220;55.816;37.808;2023-03-23T21:30:35;6.10;;;4.10;;
32866;SDS011;19220;55.816;37.808;2023-03-23T21:33:00;5.38;;;4.55;;
32866;SDS011;19220;55.816;37.808;2023-03-23T21:35:26;5.15;;;4.50;;
32866;SDS011;19220;55.816;37.808;2023-03-23T21:37:51;5.43;;;4.22;;
32866;SDS011;19220;55.816;37.808;2023-03-23T21:40:18;7.90;;;4.50;;
32866;SDS011;19220;55.816;37.808;2023-03-23T21:42:44;6.22;;;4.30;;
32866;SDS011;19220;55.816;37.808;2023-03-23T21:45:11;6.55;;;4.85;;
32866;SDS011;19220;55.816;37.808;2023-03-23T21:47:38;5.38;;;4.82;;
32866;SDS011;19220;55.816;37.808;2023-03-23T21:50:06;10.27;;;4.90;;
32866;SDS011;19220;55.816;37.808;2023-03-23T21:52:32;5.20;;;4.70;;
32866;SDS011;19220;55.816;37.808;2023-03-23T21:54:58;4.88;;;4.38;;
32866;SDS011;19220;55.816;37.808;2023-03-23T21:57:27;6.90;;;5.40;;
32866;SDS011;19220;55.816;37.808;2023-03-23T21:59:52;8.30;;;4.78;;
32866;SDS011;19220;55.816;37.808;2023-03-23T22:02:18;7.03;;;5.00;;
32866;SDS011;19220;55.816;37.808;2023-03-23T22:04:43;5.43;;;4.63;;
32866;SDS011;19220;55.816;37.808;2023-03-23T22:07:09;9.05;;;5.25;;
32866;SDS011;19220;55.816;37.808;2023-03-23T22:09:37;10.77;;;5.25;;
32866;SDS011;19220;55.816;37.808;2023-03-23T22:12:05;7.40;;;5.20;;
32866;SDS011;19220;55.816;37.808;2023-03-23T22:14:31;7.63;;;5.13;;
32866;SDS011;19220;55.816;37.808;2023-03-23T22:16:56;5.80;;;5.20;;
32866;SDS011;19220;55.816;37.808;2023-03-23T22:19:22;6.68;;;4.80;;
32866;SDS011;19220;55.816;37.808;2023-03-23T22:21:47;7.85;;;5.72;;
32866;SDS011;19220;55.816;37.808;2023-03-23T22:24:13;7.22;;;5.35;;
32866;SDS011;19220;55.816;37.808;2023-03-23T22:26:38;9.18;;;5.25;;
32866;SDS011;19220;55.816;37.808;2023-03-23T22:29:04;8.20;;;5.80;;
32866;SDS011;19220;55.816;37.808;2023-03-23T22:31:31;7.13;;;5.70;;